Time;durP1;ratioP1;P1;durP2;ratioP2;P2;SDS_P1;SDS_P2;PMS_P1;PMS_P2;Temp;Humidity;BMP_temperature;BMP_pressure;BME280_temperature;BME280_humidity;BME280_pressure;Samples;Min_cycle;Max_cycle;Signal;HPM_P1;HPM_P2
2023/03/10 00:01:49;;;;;;;5.03;0.90;;;6.60;99.90;;;;;;4965510;28;20129;-80
2023/03/10 00:04:15;;;;;;;8.10;1.60;;;6.60;99.90;;;;;;4957236;28;20038;-79
2023/03/10 00:06:41;;;;;;;3.55;1.10;;;6.60;99.90;;;;;;4962075;28;20212;-79
2023/03/10 00:09:07;;;;;;;7.25;1.00;;;6.60;99.90;;;;;;4968698;28;20042;-81
2023/03/10 00:11:33;;;;;;;5.97;1.00;;;6.50;99.90;;;;;;4965318;28;20071;-82
2023/03/10 00:13:59;;;;;;;3.13;1.05;;;6.60;99.90;;;;;;4948155;28;20031;-79
2023/03/10 00:16:28;;;;;;;2.63;1.10;;;6.50;99.90;;;;;;4961863;28;20042;-81
2023/03/10 00:18:54;;;;;;;5.20;1.20;;;6.50;99.90;;;;;;4961606;28;20065;-80
2023/03/10 00:21:23;;;;;;;5.05;1.25;;;6.50;99.90;;;;;;4965647;28;20041;-81
2023/03/10 00:23:49;;;;;;;3.92;0.80;;;6.50;99.90;;;;;;4946969;28;20027;-82
2023/03/10 00:26:18;;;;;;;4.80;1.00;;;6.50;99.90;;;;;;4974230;28;20030;-79
2023/03/10 00:28:44;;;;;;;4.10;0.98;;;6.40;99.90;;;;;;4978059;28;20042;-80
2023/03/10 00:31:12;;;;;;;3.13;1.20;;;6.40;99.90;;;;;;4962753;28;20033;-79
2023/03/10 00:33:38;;;;;;;6.70;0.93;;;6.40;99.90;;;;;;4964045;28;20111;-82
2023/03/10 00:36:17;;;;;;;3.75;0.90;;;6.40;99.90;;;;;;4964877;28;20130;-80
2023/03/10 00:38:44;;;;;;;2.85;1.13;;;6.40;99.90;;;;;;4962017;28;20035;-79
2023/03/10 00:41:13;;;;;;;5.90;1.10;;;6.40;99.90;;;;;;4950238;28;20500;-80
2023/03/10 00:43:39;;;;;;;6.65;1.00;;;6.50;99.90;;;;;;4956532;28;20038;-82
2023/03/10 00:46:06;;;;;;;4.43;1.17;;;6.50;99.90;;;;;;4958867;28;20038;-82
2023/03/10 00:48:33;;;;;;;6.38;1.42;;;6.50;99.90;;;;;;4966318;28;20046;-80
2023/03/10 00:50:59;;;;;;;4.65;1.10;;;6.50;99.90;;;;;;4951521;28;20114;-79
2023/03/10 00:53:25;;;;;;;2.72;1.00;;;6.40;99.90;;;;;;4948467;28;20074;-79
2023/03/10 00:56:03;;;;;;;3.20;1.17;;;6.40;99.90;;;;;;4962372;28;20456;-79
2023/03/10 00:58:30;;;;;;;4.60;1.40;;;6.30;99.90;;;;;;4951233;28;20042;-79
2023/03/10 01:00:56;;;;;;;5.47;1.23;;;6.20;99.90;;;;;;4969382;28;20106;-82
2023/03/10 01:03:23;;;;;;;2.95;1.30;;;6.20;99.90;;;;;;4926952;28;20073;-82
2023/03/10 01:05:51;;;;;;;6.80;1.13;;;6.20;99.90;;;;;;4948027;28;20037;-81
2023/03/10 01:08:18;;;;;;;4.32;0.90;;;6.10;99.90;;;;;;4966542;28;20038;-82
2023/03/10 01:10:44;;;;;;;3.08;1.10;;;6.10;99.90;;;;;;4969371;28;20026;-80
2023/03/10 01:13:11;;;;;;;6.43;1.13;;;6.10;99.90;;;;;;4982232;28;20022;-80
2023/03/10 01:15:39;;;;;;;2.55;1.15;;;6.10;99.90;;;;;;4965467;28;20076;-79
2023/03/10 01:18:05;;;;;;;7.22;1.08;;;6.20;99.90;;;;;;4961556;28;20027;-80
2023/03/10 01:20:32;;;;;;;4.95;0.93;;;6.20;99.90;;;;;;4982378;28;20041;-79
2023/03/10 01:22:59;;;;;;;6.68;1.20;;;6.20;99.90;;;;;;4972270;28;20026;-81
2023/03/10 01:25:26;;;;;;;3.13;0.98;;;6.30;99.90;;;;;;4962454;28;20813;-81
2023/03/10 01:27:51;;;;;;;4.32;1.08;;;6.30;99.90;;;;;;4964111;28;20031;-78
2023/03/10 01:30:17;;;;;;;2.22;1.10;;;6.40;99.90;;;;;;4968808;28;20035;-80
2023/03/10 01:32:43;;;;;;;5.60;1.23;;;6.40;99.90;;;;;;4954603;28;20042;-80
2023/03/10 01:35:10;;;;;;;2.40;1.08;;;6.50;99.90;;;;;;4965548;28;20113;-80
2023/03/10 01:37:35;;;;;;;4.50;1.20;;;6.60;99.90;;;;;;4958341;28;20529;-81
2023/03/10 01:40:04;;;;;;;5.30;1.10;;;6.60;99.90;;;;;;4966771;28;20094;-82
2023/03/10 01:42:30;;;;;;;3.67;1.00;;;6.60;99.90;;;;;;4955416;28;20117;-80
2023/03/10 01:45:23;;;;;;;4.57;1.63;;;6.70;99.90;;;;;;4951065;28;20038;-80
2023/03/10 01:47:49;;;;;;;7.35;1.30;;;6.70;99.90;;;;;;4941218;28;20050;-80
2023/03/10 01:50:17;;;;;;;2.90;1.00;;;6.80;99.90;;;;;;4978232;28;20037;-81
2023/03/10 01:52:47;;;;;;;3.17;1.05;;;6.80;99.90;;;;;;4953782;28;20042;-80
2023/03/10 01:55:20;;;;;;;7.28;1.17;;;6.80;99.90;;;;;;4959863;28;20027;-82
2023/03/10 01:57:52;;;;;;;4.78;1.30;;;6.90;99.90;;;;;;4937794;28;20042;-81
2023/03/10 02:00:19;;;;;;;4.15;1.10;;;6.90;99.90;;;;;;4968559;28;20041;-81
2023/03/10 02:03:06;;;;;;;2.38;1.05;;;6.90;99.90;;;;;;4961897;28;20030;-77
2023/03/10 02:05:40;;;;;;;5.03;1.15;;;6.90;99.90;;;;;;4960116;28;20092;-80
2023/03/10 02:08:08;;;;;;;3.42;0.90;;;7.00;99.90;;;;;;4967710;28;20745;-80
2023/03/10 02:10:34;;;;;;;2.20;1.08;;;7.00;99.90;;;;;;4951321;28;20031;-80
2023/03/10 02:12:59;;;;;;;1.63;0.75;;;7.00;99.90;;;;;;4973633;28;20600;-80
2023/03/10 02:15:25;;;;;;;6.85;1.27;;;7.00;99.90;;;;;;4977382;28;20027;-79
2023/03/10 02:17:52;;;;;;;2.67;0.85;;;7.10;99.90;;;;;;4944077;28;20104;-80
2023/03/10 02:20:29;;;;;;;2.85;0.90;;;7.00;99.90;;;;;;4955358;28;20035;-80
2023/03/10 02:22:56;;;;;;;1.65;0.73;;;7.10;99.90;;;;;;4957724;28;20034;-80
2023/03/10 02:26:03;;;;;;;2.08;0.68;;;7.10;99.90;;;;;;4969474;28;20042;-80
2023/03/10 02:28:29;;;;;;;2.20;1.15;;;7.10;99.90;;;;;;4964251;28;20046;-80
2023/03/10 02:30:56;;;;;;;3.40;1.20;;;7.10;99.90;;;;;;4947403;28;20516;-80
2023/03/10 02:33:27;;;;;;;3.17;1.00;;;7.10;99.90;;;;;;4965308;28;20050;-79
2023/03/10 02:36:11;;;;;;;2.38;0.75;;;7.10;99.90;;;;;;4957754;28;20057;-80
2023/03/10 02:38:37;;;;;;;2.38;0.75;;;7.00;99.90;;;;;;4958987;28;20113;-80
2023/03/10 02:41:25;;;;;;;3.03;0.88;;;7.00;99.90;;;;;;4958707;28;20043;-80
2023/03/10 02:43:53;;;;;;;2.58;0.65;;;7.00;99.90;;;;;;4974756;28;20033;-80
2023/03/10 02:46:24;;;;;;;3.60;1.00;;;7.10;99.90;;;;;;4954877;28;20035;-80
2023/03/10 02:48:50;;;;;;;0.77;0.60;;;7.10;99.90;;;;;;4976125;28;20109;-80
2023/03/10 02:51:31;;;;;;;4.15;0.82;;;7.10;99.90;;;;;;4960465;28;20126;-79
2023/03/10 02:54:00;;;;;;;2.97;0.95;;;7.10;99.90;;;;;;4957840;28;20031;-80
2023/03/10 02:56:27;;;;;;;3.13;0.73;;;7.10;99.90;;;;;;4967183;28;20039;-81
2023/03/10 02:58:56;;;;;;;2.40;0.80;;;7.10;99.90;;;;;;4969770;28;20030;-80
2023/03/10 03:01:21;;;;;;;3.00;0.98;;;7.10;99.90;;;;;;4993604;28;20102;-79
2023/03/10 03:03:47;;;;;;;2.13;0.60;;;7.10;99.90;;;;;;4975552;28;20415;-81
2023/03/10 03:06:13;;;;;;;3.40;1.00;;;7.10;99.90;;;;;;4949937;28;20045;-81
2023/03/10 03:08:40;;;;;;;5.00;0.95;;;7.10;99.90;;;;;;4947548;28;20234;-80
2023/03/10 03:11:08;;;;;;;2.65;0.68;;;7.00;99.90;;;;;;4942908;28;20518;-81
2023/03/10 03:13:34;;;;;;;4.05;0.80;;;7.00;99.90;;;;;;4971303;28;20035;-81
2023/03/10 03:16:00;;;;;;;2.88;0.95;;;7.00;99.90;;;;;;4979245;28;20023;-81
2023/03/10 03:18:26;;;;;;;3.00;0.63;;;7.00;99.90;;;;;;4967454;28;20041;-80
2023/03/10 03:20:52;;;;;;;1.92;0.90;;;7.00;99.90;;;;;;4968134;28;20491;-79
2023/03/10 03:23:18;;;;;;;6.55;1.00;;;7.00;99.90;;;;;;4958792;28;20041;-80
2023/03/10 03:25:44;;;;;;;4.60;1.10;;;7.00;99.90;;;;;;4962896;28;20456;-80
2023/03/10 03:28:14;;;;;;;2.42;0.73;;;7.00;99.90;;;;;;4957410;28;20684;-81
2023/03/10 03:30:43;;;;;;;1.95;0.70;;;7.00;99.90;;;;;;4949996;28;20057;-80
2023/03/10 03:33:09;;;;;;;0.65;0.47;;;7.00;99.90;;;;;;4978581;28;20034;-81
2023/03/10 03:35:37;;;;;;;2.20;0.90;;;7.00;99.90;;;;;;4964345;28;20050;-80
2023/03/10 03:38:05;;;;;;;2.67;0.73;;;7.00;99.90;;;;;;4963845;28;20046;-80
2023/03/10 03:40:32;;;;;;;4.65;0.77;;;7.00;99.90;;;;;;4957995;28;20031;-80
2023/03/10 03:42:59;;;;;;;4.53;0.63;;;7.10;99.90;;;;;;4986693;28;20026;-80
2023/03/10 03:45:27;;;;;;;4.32;0.63;;;7.10;99.90;;;;;;4967401;28;20035;-80
2023/03/10 03:47:55;;;;;;;0.88;0.80;;;7.10;99.90;;;;;;4949779;28;21100;-80
2023/03/10 03:50:21;;;;;;;3.53;0.60;;;7.10;99.90;;;;;;4967265;28;20027;-79
2023/03/10 03:52:48;;;;;;;0.95;0.73;;;7.10;99.90;;;;;;4970976;28;20026;-79
2023/03/10 03:55:17;;;;;;;1.77;0.60;;;7.10;99.90;;;;;;4973444;28;20030;-82
2023/03/10 03:57:44;;;;;;;2.42;0.50;;;7.10;99.90;;;;;;4961378;28;20038;-80
2023/03/10 04:00:21;;;;;;;1.90;0.65;;;7.10;99.90;;;;;;4969774;28;20507;-79
2023/03/10 04:02:52;;;;;;;2.45;0.88;;;7.10;99.90;;;;;;4947778;28;20038;-79
2023/03/10 04:05:18;;;;;;;1.05;0.75;;;7.00;99.90;;;;;;4980976;28;20034;-80
2023/03/10 04:07:44;;;;;;;2.22;0.70;;;7.00;99.90;;;;;;4954067;28;20529;-80
2023/03/10 04:10:13;;;;;;;1.80;0.80;;;7.00;99.90;;;;;;4987097;28;20026;-81
2023/03/10 04:12:39;;;;;;;1.70;0.68;;;7.00;99.90;;;;;;4957437;28;20039;-80
2023/03/10 04:15:07;;;;;;;1.75;0.77;;;7.00;99.90;;;;;;4934021;28;20023;-81
2023/03/10 04:17:34;;;;;;;3.55;1.10;;;7.00;99.90;;;;;;4932194;28;20035;-81
2023/03/10 04:20:01;;;;;;;5.90;1.58;;;6.90;99.90;;;;;;4969753;28;20034;-81
2023/03/10 04:22:27;;;;;;;2.45;0.80;;;6.90;99.90;;;;;;4963557;28;20062;-81
2023/03/10 04:24:53;;;;;;;3.65;0.93;;;6.90;99.90;;;;;;4967938;28;20057;-80
2023/03/10 04:27:20;;;;;;;2.85;0.82;;;6.90;99.90;;;;;;4953218;28;20347;-81
2023/03/10 04:29:46;;;;;;;2.10;0.90;;;6.90;99.90;;;;;;4949411;28;20034;-80
2023/03/10 04:32:12;;;;;;;1.83;0.80;;;6.90;99.90;;;;;;4957221;28;20531;-80
2023/03/10 04:34:40;;;;;;;0.80;0.63;;;6.90;99.90;;;;;;4977869;28;21290;-80
2023/03/10 04:37:06;;;;;;;1.75;0.80;;;6.90;99.90;;;;;;4956224;28;20027;-79
2023/03/10 04:39:34;;;;;;;5.45;1.58;;;6.90;99.90;;;;;;4947502;28;20407;-80
2023/03/10 04:42:00;;;;;;;3.47;0.90;;;6.90;99.90;;;;;;4970298;28;20030;-80
2023/03/10 04:44:26;;;;;;;6.45;1.00;;;6.90;99.90;;;;;;4978289;28;20042;-79
2023/03/10 04:46:52;;;;;;;5.22;2.05;;;7.00;99.90;;;;;;4963584;28;20027;-79
2023/03/10 04:49:19;;;;;;;3.45;0.85;;;7.00;99.90;;;;;;4960690;28;20035;-80
2023/03/10 04:51:46;;;;;;;5.05;1.10;;;7.00;99.90;;;;;;4974755;28;20019;-80
2023/03/10 04:54:12;;;;;;;4.43;0.98;;;7.00;99.90;;;;;;4953645;28;20035;-79
2023/03/10 04:56:39;;;;;;;2.90;1.17;;;7.00;99.90;;;;;;4964430;28;20495;-79
2023/03/10 04:59:05;;;;;;;5.47;2.10;;;7.10;99.90;;;;;;4955624;28;20089;-79
2023/03/10 05:01:32;;;;;;;2.42;1.02;;;7.00;99.90;;;;;;4955861;28;20049;-79
2023/03/10 05:04:02;;;;;;;4.10;1.05;;;7.00;99.90;;;;;;4968889;28;20069;-80
2023/03/10 05:06:29;;;;;;;3.20;0.90;;;7.00;99.90;;;;;;4962881;28;20045;-79
2023/03/10 05:09:11;;;;;;;3.63;0.93;;;7.00;99.90;;;;;;4965888;28;20037;-77
2023/03/10 05:11:37;;;;;;;2.70;1.10;;;7.00;99.90;;;;;;4953764;28;20058;-82
2023/03/10 05:14:03;;;;;;;3.38;1.13;;;7.00;99.90;;;;;;4941354;28;20038;-80
2023/03/10 05:16:29;;;;;;;4.28;1.10;;;7.00;99.90;;;;;;4946523;28;20522;-79
2023/03/10 05:18:55;;;;;;;4.35;1.13;;;7.00;99.90;;;;;;4950013;28;20059;-79
2023/03/10 05:21:25;;;;;;;1.92;1.05;;;7.00;99.90;;;;;;4945853;28;20122;-80
2023/03/10 05:23:53;;;;;;;6.15;1.35;;;6.90;99.90;;;;;;4950573;28;20114;-79
2023/03/10 05:26:20;;;;;;;4.15;1.30;;;6.90;99.90;;;;;;4961369;28;20515;-78
2023/03/10 05:28:46;;;;;;;4.30;1.10;;;6.90;99.90;;;;;;4948596;28;20048;-80
2023/03/10 05:31:16;;;;;;;5.18;1.35;;;6.90;99.90;;;;;;4968896;28;20029;-78
2023/03/10 05:33:44;;;;;;;1.20;1.10;;;6.90;99.90;;;;;;4945848;28;20037;-81
2023/03/10 05:36:13;;;;;;;3.28;1.00;;;6.80;99.90;;;;;;4950283;28;20039;-82
2023/03/10 05:38:40;;;;;;;4.65;1.08;;;6.80;99.90;;;;;;4959236;28;20058;-80
2023/03/10 05:41:10;;;;;;;3.58;1.17;;;6.80;99.90;;;;;;4957384;28;20031;-81
2023/03/10 05:43:37;;;;;;;5.13;1.40;;;6.80;99.90;;;;;;4967649;28;20435;-79
2023/03/10 05:46:04;;;;;;;3.72;1.00;;;6.70;99.90;;;;;;4961218;28;20033;-79
2023/03/10 05:48:33;;;;;;;5.00;1.05;;;6.70;99.90;;;;;;4956142;28;20030;-79
2023/03/10 05:51:05;;;;;;;4.47;1.15;;;6.70;99.90;;;;;;4965376;28;20031;-78
2023/03/10 05:53:32;;;;;;;3.28;1.05;;;6.70;99.90;;;;;;4947468;28;20027;-80
2023/03/10 05:56:03;;;;;;;2.83;1.10;;;6.70;99.90;;;;;;4941936;28;20022;-80
2023/03/10 05:58:29;;;;;;;4.55;1.65;;;6.70;99.90;;;;;;4955851;28;20031;-79
2023/03/10 06:00:55;;;;;;;3.53;1.33;;;6.70;99.90;;;;;;4950743;28;20111;-82
2023/03/10 06:03:22;;;;;;;4.40;0.95;;;6.60;99.90;;;;;;4966192;28;20041;-82
2023/03/10 06:05:49;;;;;;;4.80;1.25;;;6.70;99.90;;;;;;4961609;28;20054;-78
2023/03/10 06:08:15;;;;;;;2.75;1.27;;;6.70;99.90;;;;;;4971287;28;20046;-79
2023/03/10 06:10:41;;;;;;;3.92;1.13;;;6.70;99.90;;;;;;4969017;28;20053;-82
2023/03/10 06:13:07;;;;;;;6.55;2.33;;;6.70;99.90;;;;;;4954219;28;20118;-81
2023/03/10 06:15:33;;;;;;;3.60;1.15;;;6.70;99.90;;;;;;4979119;28;20035;-81
2023/03/10 06:17:59;;;;;;;4.32;1.25;;;6.70;99.90;;;;;;4967033;28;20065;-82
2023/03/10 06:20:25;;;;;;;2.55;0.90;;;6.70;99.90;;;;;;4951237;28;20047;-78
2023/03/10 06:22:52;;;;;;;4.18;1.20;;;6.70;99.90;;;;;;4951982;28;20118;-78
2023/03/10 06:25:18;;;;;;;8.05;2.20;;;6.80;99.90;;;;;;4973560;28;20046;-80
2023/03/10 06:27:44;;;;;;;4.38;1.25;;;6.80;99.90;;;;;;4960494;28;20371;-82
2023/03/10 06:30:10;;;;;;;3.53;1.13;;;6.90;99.90;;;;;;4962231;28;20042;-81
2023/03/10 06:32:36;;;;;;;2.65;1.20;;;6.90;99.90;;;;;;4964656;28;20032;-81
2023/03/10 06:35:03;;;;;;;4.75;1.00;;;6.90;99.90;;;;;;4983297;28;20089;-81
2023/03/10 06:37:28;;;;;;;2.17;1.10;;;6.90;99.90;;;;;;4976836;28;20081;-81
2023/03/10 06:39:54;;;;;;;5.88;1.45;;;6.90;99.90;;;;;;4968805;28;20419;-81
2023/03/10 06:42:20;;;;;;;2.25;0.70;;;6.90;99.90;;;;;;4979948;28;20094;-81
2023/03/10 06:44:46;;;;;;;2.38;0.90;;;6.90;99.90;;;;;;4963594;28;20054;-80
2023/03/10 06:47:12;;;;;;;1.50;1.20;;;6.90;99.90;;;;;;4957628;28;20088;-80
2023/03/10 06:49:37;;;;;;;4.05;1.17;;;6.90;99.90;;;;;;4955029;28;20039;-79
2023/03/10 06:52:03;;;;;;;4.85;1.10;;;7.00;99.90;;;;;;4950500;28;20058;-82
2023/03/10 06:54:29;;;;;;;3.58;1.20;;;7.00;99.90;;;;;;4965788;28;20558;-79
2023/03/10 06:56:55;;;;;;;2.88;1.30;;;7.00;99.90;;;;;;4957846;28;20023;-79
2023/03/10 06:59:21;;;;;;;5.40;1.00;;;7.00;99.90;;;;;;4945924;28;20077;-80
2023/03/10 07:01:47;;;;;;;1.83;1.15;;;7.00;99.90;;;;;;4943691;28;20062;-81
2023/03/10 07:04:13;;;;;;;2.13;1.10;;;7.00;99.90;;;;;;4966999;28;20035;-80
2023/03/10 07:06:39;;;;;;;4.22;1.17;;;7.00;99.90;;;;;;4968573;28;20062;-80
2023/03/10 07:09:05;;;;;;;3.92;1.25;;;7.00;99.90;;;;;;4965150;28;20034;-80
2023/03/10 07:11:31;;;;;;;2.17;1.23;;;7.00;99.90;;;;;;4963615;28;20395;-78
2023/03/10 07:13:57;;;;;;;3.08;1.55;;;7.10;99.90;;;;;;4972066;28;20027;-80
2023/03/10 07:16:23;;;;;;;1.80;1.15;;;7.10;99.90;;;;;;4961591;28;20027;-78
2023/03/10 07:18:49;;;;;;;2.35;1.10;;;7.10;99.90;;;;;;4962895;28;20042;-80
2023/03/10 07:21:17;;;;;;;3.72;1.10;;;7.10;99.90;;;;;;4943514;28;20026;-80
2023/03/10 07:23:43;;;;;;;4.97;1.33;;;7.10;99.90;;;;;;4977976;28;20235;-80
2023/03/10 07:26:09;;;;;;;2.15;1.10;;;7.10;99.90;;;;;;4943405;28;20054;-81
2023/03/10 07:28:36;;;;;;;1.98;1.35;;;7.20;99.90;;;;;;4944696;28;20038;-80
2023/03/10 07:31:13;;;;;;;2.10;1.15;;;7.30;99.90;;;;;;4944515;28;20512;-79
2023/03/10 07:33:39;;;;;;;3.97;1.40;;;7.20;99.90;;;;;;4945666;28;20034;-80
2023/03/10 07:36:06;;;;;;;1.92;1.00;;;7.20;99.90;;;;;;4941953;28;20035;-79
2023/03/10 07:38:32;;;;;;;2.30;1.13;;;7.20;99.90;;;;;;4987446;28;20038;-79
2023/03/10 07:40:58;;;;;;;1.08;0.98;;;7.30;99.90;;;;;;4960111;28;20533;-79
2023/03/10 07:43:24;;;;;;;1.88;1.00;;;7.30;99.90;;;;;;4986746;28;20050;-80
2023/03/10 07:45:50;;;;;;;3.50;0.93;;;7.30;99.90;;;;;;4971733;28;20039;-79
2023/03/10 07:48:15;;;;;;;1.25;1.10;;;7.40;99.90;;;;;;4984280;28;20099;-80
2023/03/10 07:50:41;;;;;;;1.85;1.00;;;7.40;99.90;;;;;;4985871;28;20035;-80
2023/03/10 07:53:07;;;;;;;3.20;0.95;;;7.50;99.90;;;;;;4968421;28;20031;-80
2023/03/10 07:55:33;;;;;;;3.83;1.45;;;7.60;99.90;;;;;;4971561;28;20101;-80
2023/03/10 07:58:01;;;;;;;1.92;0.82;;;7.70;99.90;;;;;;4965889;28;20058;-80
2023/03/10 08:00:27;;;;;;;3.90;1.00;;;7.80;99.90;;;;;;4969081;28;20078;-79
2023/03/10 08:02:53;;;;;;;1.65;0.95;;;7.80;99.90;;;;;;4968586;28;20065;-79
2023/03/10 08:05:19;;;;;;;2.25;1.13;;;7.90;99.90;;;;;;4969905;28;20035;-79
2023/03/10 08:07:45;;;;;;;2.40;0.90;;;8.00;99.90;;;;;;4980708;28;20034;-80
2023/03/10 08:10:11;;;;;;;1.23;0.88;;;8.10;99.90;;;;;;4985638;28;20038;-80
2023/03/10 08:12:37;;;;;;;1.40;0.90;;;8.10;99.90;;;;;;4983137;28;20571;-79
2023/03/10 08:15:04;;;;;;;1.75;1.30;;;8.10;99.90;;;;;;4971918;28;20035;-80
2023/03/10 08:17:32;;;;;;;3.22;1.17;;;8.20;99.90;;;;;;4977821;28;20035;-79
2023/03/10 08:19:58;;;;;;;1.13;0.70;;;8.20;99.90;;;;;;4950163;28;20031;-79
2023/03/10 08:22:25;;;;;;;3.65;0.90;;;8.20;99.90;;;;;;4985133;28;20033;-80
2023/03/10 08:24:50;;;;;;;2.13;0.70;;;8.30;99.90;;;;;;4986234;28;20039;-79
2023/03/10 08:27:16;;;;;;;2.35;1.00;;;8.40;99.90;;;;;;4952140;28;20034;-79
2023/03/10 08:29:42;;;;;;;0.93;0.80;;;8.40;99.90;;;;;;4963753;28;20042;-79
2023/03/10 08:32:08;;;;;;;2.47;0.90;;;8.40;99.90;;;;;;4981139;28;20038;-79
2023/03/10 08:34:35;;;;;;;2.00;0.75;;;8.40;99.90;;;;;;4961346;28;20035;-78
2023/03/10 08:37:03;;;;;;;3.97;0.90;;;8.50;99.90;;;;;;4979833;28;20529;-80
2023/03/10 08:39:29;;;;;;;2.00;0.75;;;8.60;99.90;;;;;;4970117;28;20043;-82
2023/03/10 08:41:55;;;;;;;3.88;1.00;;;8.60;99.90;;;;;;4970563;28;20035;-79
2023/03/10 08:44:21;;;;;;;4.53;1.50;;;8.70;99.90;;;;;;4978688;28;20197;-78
2023/03/10 08:46:48;;;;;;;2.05;1.13;;;8.80;99.90;;;;;;4978117;28;20035;-79
2023/03/10 08:49:16;;;;;;;3.55;0.90;;;9.00;99.90;;;;;;4978732;28;20035;-79
2023/03/10 08:51:42;;;;;;;1.15;0.82;;;9.10;99.90;;;;;;4979267;28;20026;-79
2023/03/10 08:54:12;;;;;;;1.48;0.60;;;9.30;99.90;;;;;;4979508;28;20085;-79
2023/03/10 08:56:38;;;;;;;1.67;0.95;;;9.40;99.90;;;;;;4967616;28;20057;-79
2023/03/10 08:59:04;;;;;;;0.82;0.68;;;9.50;99.90;;;;;;4971520;28;20474;-79
2023/03/10 09:01:34;;;;;;;3.53;0.70;;;9.70;99.90;;;;;;4967075;28;20099;-79
2023/03/10 09:04:01;;;;;;;0.60;0.50;;;9.80;99.90;;;;;;4950243;28;20054;-79
2023/03/10 09:06:27;;;;;;;1.10;0.70;;;10.00;99.90;;;;;;4978071;28;20030;-78
2023/03/10 09:08:53;;;;;;;1.80;0.65;;;10.10;99.90;;;;;;4979498;28;20034;-79
2023/03/10 09:11:23;;;;;;;0.85;0.45;;;10.30;99.90;;;;;;4980591;28;20054;-79
2023/03/10 09:13:49;;;;;;;2.65;0.50;;;10.40;99.90;;;;;;4983200;28;20025;-78
2023/03/10 09:16:15;;;;;;;1.48;0.50;;;10.40;99.90;;;;;;4968172;28;20097;-79
2023/03/10 09:18:41;;;;;;;5.75;0.75;;;10.50;99.90;;;;;;4981661;28;20027;-79
2023/03/10 09:21:10;;;;;;;5.03;0.77;;;10.60;99.90;;;;;;4967865;28;20108;-79
2023/03/10 09:23:36;;;;;;;1.50;0.60;;;10.60;99.90;;;;;;4968496;28;20117;-78
2023/03/10 09:26:02;;;;;;;3.55;0.60;;;10.70;99.90;;;;;;4981696;28;20066;-78
2023/03/10 09:28:27;;;;;;;2.17;0.60;;;10.80;99.90;;;;;;4964260;28;20031;-79
2023/03/10 09:30:53;;;;;;;1.50;0.50;;;10.90;99.90;;;;;;4962762;28;20047;-79
2023/03/10 09:33:21;;;;;;;1.33;0.50;;;11.10;99.90;;;;;;4959986;28;20039;-79
2023/03/10 09:35:48;;;;;;;1.58;0.50;;;11.30;99.90;;;;;;4975277;28;20066;-79
2023/03/10 09:38:14;;;;;;;2.53;0.50;;;11.30;99.90;;;;;;4979692;28;20046;-79
2023/03/10 09:41:03;;;;;;;3.08;0.60;;;11.30;99.90;;;;;;4988242;28;20057;-79
2023/03/10 09:43:36;;;;;;;2.55;0.52;;;11.30;99.90;;;;;;4974205;28;20201;-79
2023/03/10 09:46:21;;;;;;;2.88;0.60;;;11.40;99.90;;;;;;4949424;28;20043;-80
2023/03/10 09:49:10;;;;;;;1.05;0.40;;;11.20;99.90;;;;;;4975807;28;20030;-78
2023/03/10 09:51:42;;;;;;;1.20;0.70;;;11.20;99.90;;;;;;4972623;28;20034;-79
2023/03/10 09:54:20;;;;;;;2.53;0.47;;;11.20;99.90;;;;;;4962813;28;20056;-79
2023/03/10 09:56:46;;;;;;;1.77;0.75;;;11.20;99.90;;;;;;4968897;28;20041;-79
2023/03/10 09:59:21;;;;;;;3.70;0.60;;;11.20;99.90;;;;;;4975925;28;20041;-79
2023/03/10 10:01:49;;;;;;;;;;;11.10;99.90;;;;;;4981245;28;20094;-79
2023/03/10 10:04:30;;;;;;;1.90;0.50;;;10.90;99.90;;;;;;4950878;28;20012;-79
2023/03/10 10:06:58;;;;;;;2.88;0.40;;;10.90;99.90;;;;;;4975129;28;20126;-80
2023/03/10 10:09:41;;;;;;;4.00;0.70;;;10.90;99.90;;;;;;4983841;28;20049;-79
2023/03/10 10:12:12;;;;;;;3.20;0.80;;;10.90;99.90;;;;;;4965346;28;20085;-79
2023/03/10 10:14:38;;;;;;;2.92;0.50;;;11.00;99.90;;;;;;4965174;28;20038;-77
2023/03/10 10:17:52;;;;;;;1.67;0.90;;;10.90;99.90;;;;;;4957070;28;20130;-79
2023/03/10 10:20:22;;;;;;;1.58;0.50;;;10.90;99.90;;;;;;4953889;28;20083;-78
2023/03/10 10:22:48;;;;;;;2.35;0.30;;;10.90;99.90;;;;;;4951934;28;20037;-78
2023/03/10 10:25:20;;;;;;;2.95;0.38;;;10.90;99.90;;;;;;4973426;28;20031;-79
2023/03/10 10:27:50;;;;;;;2.25;0.40;;;10.80;99.90;;;;;;4975344;28;20039;-79
2023/03/10 10:30:33;;;;;;;2.95;0.43;;;10.90;99.90;;;;;;4976276;28;20030;-78
2023/03/10 10:33:08;;;;;;;1.50;0.50;;;10.90;99.90;;;;;;4946631;28;20031;-78
2023/03/10 10:35:39;;;;;;;4.87;0.97;;;10.80;99.90;;;;;;4949265;28;20116;-77
2023/03/10 10:38:13;;;;;;;3.13;0.57;;;10.80;99.90;;;;;;4947825;28;20376;-80
2023/03/10 10:41:03;;;;;;;1.00;0.40;;;10.70;99.90;;;;;;4942127;28;20069;-81
2023/03/10 10:43:29;;;;;;;0.82;0.28;;;10.70;99.90;;;;;;4975189;28;20058;-79
2023/03/10 10:46:05;;;;;;;3.70;0.38;;;10.70;99.90;;;;;;4977849;28;20045;-79
2023/03/10 10:48:37;;;;;;;2.28;0.50;;;10.80;99.90;;;;;;4977515;28;20368;-80
2023/03/10 10:51:15;;;;;;;3.88;0.40;;;10.80;99.90;;;;;;4982299;28;20022;-79
2023/03/10 10:53:41;;;;;;;2.28;0.30;;;10.80;99.90;;;;;;4978569;28;20034;-79
2023/03/10 10:56:18;;;;;;;3.60;0.20;;;10.90;99.90;;;;;;4963466;28;20037;-80
2023/03/10 10:58:59;;;;;;;3.53;0.40;;;10.80;99.90;;;;;;4983436;28;20038;-80
2023/03/10 11:01:24;;;;;;;0.90;0.30;;;10.80;99.90;;;;;;4974955;28;20545;-80
2023/03/10 11:04:05;;;;;;;1.08;0.30;;;10.80;99.90;;;;;;4968858;28;20127;-80
2023/03/10 11:06:33;;;;;;;0.63;0.25;;;10.90;99.90;;;;;;4975900;28;20037;-79
2023/03/10 11:09:17;;;;;;;1.50;0.20;;;10.80;99.90;;;;;;4951653;28;20026;-79
2023/03/10 11:11:52;;;;;;;0.65;0.20;;;10.70;99.90;;;;;;4981652;28;20039;-78
2023/03/10 11:14:50;;;;;;;1.98;0.50;;;10.50;99.90;;;;;;4978107;28;20046;-80
2023/03/10 11:17:22;;;;;;;1.38;0.43;;;10.40;99.90;;;;;;4969534;28;20041;-79
2023/03/10 11:20:13;;;;;;;2.72;0.30;;;10.20;99.90;;;;;;4985807;28;20133;-79
2023/03/10 11:22:57;;;;;;;0.70;0.40;;;9.90;99.90;;;;;;4975889;28;20423;-81
2023/03/10 11:25:36;;;;;;;0.82;0.22;;;9.60;99.90;;;;;;4977007;28;20431;-81
2023/03/10 11:28:35;;;;;;;3.22;0.40;;;9.30;99.90;;;;;;4981200;28;20109;-79
2023/03/10 11:31:20;;;;;;;3.30;0.60;;;9.00;99.90;;;;;;4969881;28;20399;-80
2023/03/10 11:33:45;;;;;;;0.10;0.10;;;8.80;99.90;;;;;;4980450;28;20032;-80
2023/03/10 11:36:56;;;;;;;0.32;0.20;;;8.60;99.90;;;;;;4970042;28;20027;-78
2023/03/10 11:39:27;;;;;;;0.50;0.10;;;8.30;99.90;;;;;;4939907;28;20034;-79
2023/03/10 11:42:23;;;;;;;1.58;0.20;;;8.10;99.90;;;;;;4961370;28;20573;-79
2023/03/10 11:45:14;;;;;;;0.55;0.20;;;7.90;99.90;;;;;;4965889;28;20035;-78
2023/03/10 11:48:17;;;;;;;0.35;0.00;;;7.80;99.90;;;;;;4973808;28;20145;-80
2023/03/10 11:50:53;;;;;;;1.52;0.10;;;7.80;99.90;;;;;;4975917;28;20062;-78
2023/03/10 11:53:34;;;;;;;1.27;0.10;;;7.70;99.90;;;;;;4980912;28;20081;-79
2023/03/10 11:56:01;;;;;;;0.20;0.05;;;7.80;99.90;;;;;;4980461;28;20023;-78
2023/03/10 11:58:44;;;;;;;1.55;0.13;;;7.90;99.90;;;;;;4969751;28;20069;-78
2023/03/10 12:01:18;;;;;;;0.10;0.00;;;8.20;99.90;;;;;;4980469;28;20046;-80
2023/03/10 12:03:47;;;;;;;0.57;0.10;;;8.40;99.90;;;;;;4974275;28;20101;-79
2023/03/10 12:06:26;;;;;;;0.13;0.00;;;8.70;99.90;;;;;;4981036;28;20033;-80
2023/03/10 12:08:55;;;;;;;2.38;0.30;;;8.90;99.90;;;;;;4984190;28;20045;-80
2023/03/10 12:11:25;;;;;;;1.35;0.38;;;9.10;99.90;;;;;;4975914;28;20037;-80
2023/03/10 12:13:57;;;;;;;1.27;0.20;;;9.20;99.90;;;;;;4962838;28;20031;-79
2023/03/10 12:16:26;;;;;;;1.35;0.32;;;9.40;99.90;;;;;;4973502;28;20089;-78
2023/03/10 12:18:52;;;;;;;1.38;0.30;;;9.50;99.90;;;;;;4976369;28;20022;-79
2023/03/10 12:21:25;;;;;;;0.68;0.30;;;9.50;99.90;;;;;;4983670;28;20046;-81
2023/03/10 12:23:53;;;;;;;1.10;0.43;;;9.60;99.90;;;;;;4972261;28;20341;-81
2023/03/10 12:26:43;;;;;;;0.95;0.40;;;9.60;99.90;;;;;;4979185;28;20614;-80
2023/03/10 12:29:21;;;;;;;0.65;0.30;;;9.60;99.90;;;;;;4976021;28;20551;-78
2023/03/10 12:31:51;;;;;;;1.70;0.43;;;9.60;99.90;;;;;;4964500;28;20494;-80
2023/03/10 12:34:23;;;;;;;1.65;0.55;;;9.50;99.90;;;;;;4974355;28;20129;-80
2023/03/10 12:37:10;;;;;;;1.85;0.60;;;9.50;99.90;;;;;;4965513;28;20039;-80
2023/03/10 12:39:41;;;;;;;1.35;0.40;;;9.40;99.90;;;;;;4983679;28;20462;-79
2023/03/10 12:42:22;;;;;;;1.95;0.60;;;9.30;99.90;;;;;;4973901;28;20038;-78
2023/03/10 12:45:08;;;;;;;2.60;0.60;;;9.20;99.90;;;;;;4982525;28;20030;-80
2023/03/10 12:47:37;;;;;;;1.55;0.65;;;9.30;99.90;;;;;;4963130;28;20046;-81
2023/03/10 12:50:43;;;;;;;3.00;0.95;;;9.30;99.90;;;;;;4983379;28;20026;-79
2023/03/10 12:53:37;;;;;;;2.05;0.80;;;9.30;99.90;;;;;;4977478;28;20027;-78
2023/03/10 12:56:12;;;;;;;5.97;0.70;;;9.40;99.90;;;;;;4966681;28;20049;-79
2023/03/10 12:58:42;;;;;;;2.65;0.70;;;9.40;99.90;;;;;;4980512;28;20034;-80
2023/03/10 13:01:13;;;;;;;1.65;0.50;;;9.40;99.90;;;;;;4985838;28;20038;-80
2023/03/10 13:03:52;;;;;;;3.67;0.80;;;9.40;99.90;;;;;;4980227;28;20517;-81
2023/03/10 13:06:27;;;;;;;1.65;0.60;;;9.40;99.90;;;;;;4969960;28;20045;-79
2023/03/10 13:09:16;;;;;;;0.65;0.40;;;9.40;99.90;;;;;;4984009;28;20185;-80
2023/03/10 13:11:56;;;;;;;1.00;0.50;;;9.40;99.90;;;;;;4983711;28;20023;-79